Sassamansville, PA (19472)

5:27 AM EDT on April 27, 2015 (GMT -0400)
Gilbertsville | | Change Station
CLOSE
Current Station
Personal Weather Station
Location: Gilbertsville, PA
Elevation: 338 ft
Nearby Weather Stations

Elev 338 ft 40.30 °N, 75.62 °W | Updated 2 seconds ago

Overcast
Overcast
46.1 °F
Feels Like 46 °F
N
0.0
Wind Variable Wind from NW
Gusts 1.0 mph

Today
High -- | Low -- °F
--% Chance of Precip.
Yesterday
High -- | Low -- °F
Precip. -- in
6:07 AM 7:53 PM
Waxing Gibbous, 63% visible
Pressure 29.73 in
Visibility 10.0 miles
Clouds Overcast 8000 ft
Windchill 46 °F
Dew Point 33 °F
Humidity 60%
Rainfall 0.00 in
Snow Depth Not available.
UV 0.0 out of 12
Pollen 10.10 out of 12
Air Quality Not available.
Flu Activity Sporadic
METAR KPTW 270854Z AUTO 30003KT 10SM OVC080 05/00 A2973 RMK AO2 SLP065 T00500000 56006 $

More Conditions Fewer Conditions

Pressure 29.73 in
Visibility 10.0 miles
Clouds Overcast 8000 ft
Windchill 46 °F
Dew Point 33 °F
Humidity 60%
Rainfall 0.00 in
Snow Depth Not available.
UV 0.0 out of 12
Pollen 10.10 out of 12
Air Quality Not available.
Flu Activity Sporadic
METAR KPTW 270854Z AUTO 30003KT 10SM OVC080 05/00 A2973 RMK AO2 SLP065 T00500000 56006 $

More Conditions Fewer Conditions

10-Day Weather Forecast

Almanac

Astronomy

Apr. 27, 2015 Rise Set
Actual Time
Civil Twilight
Nautical Twilight
Astronomical Twilight
Moon
Length of Visible Light
Length of Day
Tomorrow will be .
, % of the Moon is Illuminated

Today's Extremes

State Highs State Lows

Community

WunderPhotos

Upload Photos

1,817,278 photos uploaded!

WunderBlogs® & News

Nearby

Air Quality

  Air Quality AQ Index Pollutant
Not available.

Snow Depth

Station Depth Elevation

Earthquake Activity

City Distance Mag. Time & Date
Minimum magnitude displayed is 2.5.

Coastal Water Temperatures

Place Temperature

Stations

Nearby Weather Stations

Station Location Temp. Windchill Dew Point Humidity Wind Precip. Elev Updated Type